GMMELXGB

Guest
Details From GMME - SALE
To LXGB - Gibraltar
Flight Number -
Tags generated
Created
Modified
Stats Distance 145 nm / 269 km
Max Altitude 17,100 ft / 5,212 m
Waypoints 3
Social Downloads 0
Likes 0
Share VATSIM

Download

Looking for another format? Having issues loading an existing format? Contact us
Advertisement - Login to hide

Notes

Basic altitude profile: - Ascent Rate: 2000ft/min - Ascent Speed: 260kts - Cruise Altitude: 24000ft - Cruise Speed: 280kts - Descent Rate: 1200ft/min - Descent Speed: 240kts Options: - Use NATs: yes - Use PACOTS: yes - Use low airways: no - Use high airways: yes

Route

GMME BARIS LXGB

ID Type Via Altitude Latitude Longitude Leg Dist Tot Dist Heading (true) Name
O GMME APT - 0 ft / 0 m 34.05147˚ -6.75152˚ - 0 nm - SALE
BARIS FIX - 17,100 ft / 5,212 m 34.90306˚ -5.93056˚ 65 nm 65 nm 38° / 39° -
O LXGB APT - 0 ft / 0 m 36.15121˚ -5.34966˚ 80 nm 145 nm 21° / 21° Gibraltar

Altitude Profile

Advertisement - Login to hide

GMME

Details ICAO GMME (RBA)
Name SALE
Region Morocco
Timezone Africa/Casablanca (UTC+0.0)
Stats Elevation 276 ft / 84 m (AMSL)
Location 34.051468° -6.751519°
Runways 1
Magnetic Variation 1.550° W

METAR

GMME 162030Z 17003KT 120V190 8000 FEW016 09/07 Q1021 NOSIG

Decode

TAF

TAF GMME 161700Z 1618/1724 32008KT 6000 SCT013 SCT020 TEMPO 1700/1706 160006KT TEMPO 1712/1718 04008KT 9999 SCT016

Decode

Departure Runways

ID Width Length Bearing (true) Bearing (mag) Surface Threshold Offset Overrun Length
04 148 ft / 45 m 11,503 ft / 3,506 m 31.24° 32.79° Asphalt 0 ft / 0 m 197 ft / 60 m
22 148 ft / 45 m 11,503 ft / 3,506 m 211.25° 212.80° Asphalt 0 ft / 0 m 197 ft / 60 m

LXGB

Details ICAO LXGB (GIB)
Name Gibraltar
Region Gibralter
Timezone Europe/Gibraltar (UTC+1.0)
Stats Elevation 15 ft / 5 m (AMSL)
Location 36.151209° -5.349664°
Runways 1
Magnetic Variation 1.122° W

METAR

LXGB 161950Z AUTO 03006KT 9999 // BKN022/// 14/11 Q1022

Decode

TAF

Not found

Destination Runways

ID Width Length Bearing (true) Bearing (mag) Surface Threshold Offset Overrun Length
27 151 ft / 46 m 5,992 ft / 1,826 m 267.56° 268.68° Asphalt 367 ft / 112 m 89 ft / 27 m
9 151 ft / 46 m 5,992 ft / 1,826 m 87.54° 88.66° Asphalt 299 ft / 91 m 52 ft / 16 m

Popular Alternatives